Attica, New York
Current Conditions -  °F | °C
As of 9:54 AM on Saturday 20 Dec 2014 (Local Time) from KBUF Reporting Station
Scattered Clouds Scattered Clouds  
Wind Chill: 24°   Ceiling: Unl
Heat Index: 30°   Visibility: 10mi
Dew Point: 22°   Wind: 6mph
Humidity: 72%   Direction: 290°WNW
Pressure: 30.29"   Gusts: NA
Location:  42.86°N, 78.28°W
Report Text: KBUF 201454Z 29005KT 10SM SCT021 SCT040 SCT180 SCT250 M01/M06 A3029 RMK AO2 SLP267 T10111056 53003
Loading
Personal Weather Stations






























Interactive Weather Map New forecast layout! Learn more

10-Day Weather Forecast

Advertisements
Track Severe Weather on mobile